createdAt,value
2022-10-04T00:01:55.252Z,6.9
2022-10-04T00:03:57.017Z,9.7
2022-10-04T00:05:58.999Z,8.6
2022-10-04T00:08:00.650Z,6
2022-10-04T00:10:05.729Z,8.5
2022-10-04T00:12:07.526Z,4.9
2022-10-04T00:14:09.351Z,8.3
2022-10-04T00:16:38.118Z,10.2
2022-10-04T00:18:39.874Z,6.1
2022-10-04T00:20:41.673Z,9.9
2022-10-04T00:22:46.731Z,10
2022-10-04T00:24:48.550Z,21
2022-10-04T00:26:50.361Z,3.1
2022-10-04T00:28:52.175Z,7.3
2022-10-04T00:30:54.069Z,6.9
2022-10-04T00:32:55.795Z,14
2022-10-04T00:34:57.629Z,13.8
2022-10-04T00:37:02.683Z,6.9
2022-10-04T00:39:04.487Z,4.2
2022-10-04T00:41:06.310Z,12.2
2022-10-04T00:43:08.100Z,7.5
2022-10-04T00:45:09.935Z,8.9
2022-10-04T00:47:11.733Z,17.2
2022-10-04T00:49:13.536Z,4.4
2022-10-04T00:51:18.591Z,6.5
2022-10-04T00:53:20.397Z,5.3
2022-10-04T00:55:22.224Z,5.2
2022-10-04T00:57:24.043Z,12.7
2022-10-04T00:59:25.846Z,8.8
2022-10-04T01:01:27.738Z,3.1
2022-10-04T01:03:29.470Z,10.5
2022-10-04T01:05:34.536Z,7.9
2022-10-04T01:07:36.338Z,8.5
2022-10-04T01:09:38.132Z,5.8
2022-10-04T01:10:40.664Z,13.2
2022-10-04T01:12:42.472Z,8.9
2022-10-04T01:14:44.289Z,8.8
2022-10-04T01:16:46.094Z,8.4
2022-10-04T01:18:51.120Z,7.5
2022-10-04T01:20:52.929Z,7
2022-10-04T01:22:54.735Z,5.3
2022-10-04T01:24:56.571Z,4.5
2022-10-04T01:26:58.376Z,9.7
2022-10-04T01:29:00.179Z,19
2022-10-04T01:33:07.045Z,10.2
2022-10-04T01:35:08.894Z,8.8
2022-10-04T01:37:10.689Z,6.5
2022-10-04T01:39:12.626Z,6.3
2022-10-04T01:43:16.094Z,7.3
2022-10-04T01:45:17.915Z,8.6
2022-10-04T01:47:22.956Z,10.4
2022-10-04T01:49:24.757Z,14.9
2022-10-04T01:51:26.565Z,14.5
2022-10-04T01:53:28.379Z,8.4
2022-10-04T01:55:30.201Z,9.3
2022-10-04T01:57:31.989Z,11.5
2022-10-04T01:59:33.795Z,5.9
2022-10-04T02:03:40.676Z,9.9
2022-10-04T02:05:42.457Z,9.1
2022-10-04T02:08:46.785Z,8.8
2022-10-04T02:12:50.415Z,12.2
2022-10-04T02:14:55.434Z,19.2
2022-10-04T02:16:57.249Z,10.1
2022-10-04T02:18:59.064Z,22.4
2022-10-04T02:29:11.311Z,11
2022-10-04T02:33:14.923Z,9
2022-10-04T02:35:16.737Z,9.4
2022-10-04T02:37:18.542Z,11.5
2022-10-04T02:39:20.352Z,12.9
2022-10-04T02:41:22.142Z,10.9
2022-10-04T02:43:27.203Z,12.2
2022-10-04T02:45:28.998Z,17.3
2022-10-04T02:47:30.790Z,10.8
2022-10-04T02:49:32.599Z,17.1
2022-10-04T02:51:34.398Z,10.6
2022-10-04T02:53:36.209Z,10.3
2022-10-04T02:55:38.175Z,14.3
2022-10-04T02:57:43.054Z,13.4
2022-10-04T02:59:44.858Z,11.9
2022-10-04T03:01:46.807Z,13.6
2022-10-04T03:02:49.287Z,18
2022-10-04T03:04:50.968Z,15.6
2022-10-04T03:06:52.750Z,7.7
2022-10-04T03:08:54.568Z,12.2
2022-10-04T03:10:59.597Z,18.2
2022-10-04T03:13:01.412Z,12.8
2022-10-04T03:15:03.211Z,11.9
2022-10-04T03:17:05.007Z,21.8
2022-10-04T03:19:06.809Z,9.9
2022-10-04T03:21:08.603Z,12.8
2022-10-04T03:23:10.409Z,6.9
2022-10-04T03:25:15.441Z,13.2
2022-10-04T03:27:17.240Z,10.4
2022-10-04T03:29:19.044Z,8.9
2022-10-04T03:31:20.873Z,6.8
2022-10-04T03:33:22.667Z,12.2
2022-10-04T03:35:24.435Z,8.7
2022-10-04T03:37:26.261Z,8.9
2022-10-04T03:39:31.303Z,11.8
2022-10-04T03:41:33.120Z,9.4
2022-10-04T03:43:34.905Z,15.4
2022-10-04T03:45:36.752Z,17.3
2022-10-04T03:47:38.508Z,9.5
2022-10-04T03:49:40.285Z,14.7
2022-10-04T03:51:42.212Z,12.2
2022-10-04T03:53:47.138Z,14.4
2022-10-04T03:55:48.913Z,10.2
2022-10-04T03:57:50.705Z,10.1
2022-10-04T04:00:19.462Z,9.9
2022-10-04T04:06:28.064Z,12.6
2022-10-04T04:12:33.450Z,9
2022-10-04T04:14:35.246Z,20.3
2022-10-04T04:16:37.132Z,7.9
2022-10-04T04:18:38.837Z,13.7
2022-10-04T04:20:43.869Z,13.4
2022-10-04T04:22:45.656Z,9
2022-10-04T04:24:49.050Z,12.4
2022-10-04T04:26:50.750Z,26.8
2022-10-04T04:28:52.549Z,12.7
2022-10-04T04:30:54.318Z,13.1
2022-10-04T04:32:56.102Z,8
2022-10-04T04:35:01.144Z,12.7
2022-10-04T04:37:02.917Z,10.7
2022-10-04T04:39:04.724Z,16.6
2022-10-04T04:41:06.489Z,12.9
2022-10-04T04:43:08.277Z,9.6
2022-10-04T04:45:10.068Z,11.7
2022-10-04T04:47:14.182Z,19.1
2022-10-04T04:49:16.877Z,14.5
2022-10-04T04:51:18.680Z,18.6
2022-10-04T04:53:20.455Z,13.8
2022-10-04T04:54:22.973Z,15.6
2022-10-04T04:56:24.739Z,9.7
2022-10-04T04:58:26.519Z,15.5
2022-10-04T05:00:28.312Z,16.5
2022-10-04T05:02:33.385Z,30.4
2022-10-04T05:04:35.087Z,15.1
2022-10-04T05:06:36.880Z,22
2022-10-04T05:08:41.238Z,20
2022-10-04T05:10:40.415Z,13.4
2022-10-04T05:12:42.230Z,19
2022-10-04T05:14:43.975Z,15.9
2022-10-04T05:16:49.050Z,15.4
2022-10-04T05:18:50.765Z,18.1
2022-10-04T05:20:52.552Z,25.4
2022-10-04T05:22:54.326Z,15
2022-10-04T05:24:56.076Z,24.1
2022-10-04T05:26:57.870Z,18.8
2022-10-04T05:28:59.667Z,25.5
2022-10-04T05:31:04.813Z,19.6
2022-10-04T05:33:06.437Z,20.6
2022-10-04T05:35:08.204Z,16.9
2022-10-04T05:37:09.980Z,29
2022-10-04T05:39:11.762Z,20.2
2022-10-04T05:45:20.327Z,19.1
2022-10-04T05:47:22.113Z,36.5
2022-10-04T05:49:23.899Z,23.8
2022-10-04T05:52:28.166Z,40.4
2022-10-04T05:54:29.945Z,17.9
2022-10-04T05:56:31.711Z,17.1
2022-10-04T05:58:36.717Z,28.3
2022-10-04T06:00:38.489Z,21.1
2022-10-04T06:02:40.335Z,20.9
2022-10-04T06:04:42.050Z,27
2022-10-04T06:06:43.966Z,26.1
2022-10-04T06:08:45.614Z,19.2
2022-10-04T06:10:47.370Z,27.3
2022-10-04T06:12:52.384Z,33.9
2022-10-04T06:14:54.171Z,28.1
2022-10-04T06:16:56.119Z,23.1
2022-10-04T06:18:57.702Z,20.3
2022-10-04T06:20:59.486Z,22.4
2022-10-04T06:23:01.260Z,28
2022-10-04T06:25:03.019Z,25.1
2022-10-04T06:27:08.172Z,24.4
2022-10-04T06:29:09.799Z,29.7
2022-10-04T06:31:11.601Z,33.8
2022-10-04T06:33:13.352Z,22.1
2022-10-04T06:35:15.133Z,21.5
2022-10-04T06:37:16.911Z,18.7
2022-10-04T06:39:18.677Z,28.4
2022-10-04T06:41:23.693Z,37.6
2022-10-04T06:43:25.478Z,28.8
2022-10-04T06:45:27.264Z,30.2
2022-10-04T06:46:29.790Z,22.6
2022-10-04T06:48:31.562Z,27.7
2022-10-04T06:50:33.314Z,28.1
2022-10-04T06:56:41.887Z,15.5
2022-10-04T06:58:43.653Z,14.2
2022-10-04T07:00:45.431Z,15.6
2022-10-04T07:02:47.307Z,15
2022-10-04T07:05:07.424Z,20.2
2022-10-04T07:06:50.767Z,20.5
2022-10-04T07:08:55.778Z,15.5
2022-10-04T07:10:57.550Z,27
2022-10-04T07:12:59.356Z,15.8
2022-10-04T07:15:01.112Z,19.8
2022-10-04T07:17:02.919Z,18.3
2022-10-04T07:19:04.687Z,16.4
2022-10-04T07:23:11.463Z,23
2022-10-04T07:25:13.263Z,12.4
2022-10-04T07:27:15.032Z,13.1
2022-10-04T07:29:16.876Z,10.1
2022-10-04T07:31:18.711Z,10.1
2022-10-04T07:33:20.441Z,12.5
2022-10-04T07:35:22.234Z,6.5
2022-10-04T07:37:27.614Z,6.3
2022-10-04T07:39:29.449Z,5.6
2022-10-04T07:44:00.109Z,9.7
2022-10-04T07:46:01.811Z,8.7
2022-10-04T07:48:03.578Z,7.3
2022-10-04T07:50:08.657Z,9.6
2022-10-04T07:52:10.478Z,8.4
2022-10-04T07:54:12.424Z,15.5
2022-10-04T07:56:14.127Z,4.6
2022-10-04T07:58:15.959Z,4.3
2022-10-04T08:00:17.757Z,12.1
2022-10-04T08:02:19.688Z,6.6
2022-10-04T08:04:24.670Z,6
2022-10-04T08:06:26.497Z,7.3
2022-10-04T08:08:28.301Z,9
2022-10-04T08:10:30.150Z,8
2022-10-04T08:12:31.958Z,10.6
2022-10-04T08:14:33.803Z,8.9
2022-10-04T08:16:35.645Z,13
2022-10-04T08:20:42.524Z,8.8
2022-10-04T08:22:44.347Z,4.5
2022-10-04T08:24:50.020Z,5.8
2022-10-04T08:26:48.039Z,5.9
2022-10-04T08:28:49.890Z,6.4
2022-10-04T08:30:51.733Z,5.4
2022-10-04T08:32:56.793Z,7.4
2022-10-04T08:34:58.638Z,4.6
2022-10-04T08:37:00.461Z,7.4
2022-10-04T08:38:03.012Z,18.3
2022-10-04T08:40:06.194Z,3
2022-10-04T08:42:06.693Z,6.5
2022-10-04T08:44:08.534Z,7.8
2022-10-04T08:46:13.732Z,5.5
2022-10-04T08:48:15.468Z,9.7
2022-10-04T08:50:17.290Z,7
2022-10-04T08:52:19.145Z,7.9
2022-10-04T08:54:20.960Z,6.7
2022-10-04T08:56:22.786Z,5.4
2022-10-04T08:58:24.613Z,8.2
2022-10-04T09:00:29.775Z,5.7
2022-10-04T09:02:31.596Z,11.8
2022-10-04T09:04:33.371Z,7.4
2022-10-04T09:06:35.228Z,7.7
2022-10-04T09:10:38.912Z,5.9
2022-10-04T09:12:40.729Z,4.9
2022-10-04T09:14:45.840Z,5.7
2022-10-04T09:16:47.965Z,8.3
2022-10-04T09:18:49.508Z,9.4
2022-10-04T09:20:51.355Z,7.4
2022-10-04T09:22:53.183Z,6.8
2022-10-04T09:24:55.039Z,5.4
2022-10-04T09:26:56.863Z,2.6
2022-10-04T09:29:04.920Z,8.5
2022-10-04T09:31:03.875Z,5.1
2022-10-04T09:33:05.653Z,3.3
2022-10-04T09:34:08.222Z,8
2022-10-04T09:36:10.025Z,3.9
2022-10-04T09:38:11.877Z,5.1
2022-10-04T09:40:13.702Z,4.1
2022-10-04T09:42:18.816Z,5.3
2022-10-04T09:44:20.626Z,5.1
2022-10-04T09:46:22.618Z,4.8
2022-10-04T09:48:24.302Z,5
2022-10-04T09:50:26.113Z,6.7
2022-10-04T09:52:27.953Z,11.5
2022-10-04T09:54:29.804Z,4.7
2022-10-04T09:58:36.689Z,9.9
2022-10-04T10:00:38.531Z,7.5
2022-10-04T10:02:40.615Z,4.4
2022-10-04T10:04:42.165Z,10
2022-10-04T10:06:44.285Z,4.6
2022-10-04T10:08:45.718Z,7
2022-10-04T10:10:50.807Z,3.3
2022-10-04T10:12:52.812Z,6.2
2022-10-04T10:14:54.355Z,11
2022-10-04T10:16:57.662Z,4.6
2022-10-04T10:18:59.434Z,5.3
2022-10-04T10:21:01.246Z,6.6
2022-10-04T10:23:02.974Z,5.2
2022-10-04T10:25:07.854Z,5
2022-10-04T10:27:09.565Z,4
2022-10-04T10:29:11.256Z,5.7
2022-10-04T10:30:13.702Z,7.1
2022-10-04T10:32:15.413Z,5
2022-10-04T10:34:17.145Z,4.8
2022-10-04T10:36:18.858Z,10.6
2022-10-04T10:38:23.841Z,11
2022-10-04T10:44:28.969Z,4.2
2022-10-04T10:46:30.755Z,6.4
2022-10-04T10:52:39.043Z,3.8
2022-10-04T10:56:42.838Z,7.8
2022-10-04T10:58:44.274Z,5.3
2022-10-04T11:00:46.015Z,7.2
2022-10-04T11:02:49.859Z,4.4
2022-10-04T11:04:49.405Z,7.6
2022-10-04T11:06:54.379Z,5.1
2022-10-04T11:08:56.093Z,5.9
2022-10-04T11:10:57.811Z,3.6
2022-10-04T11:12:59.491Z,2.3
2022-10-04T11:15:01.205Z,2.9
2022-10-04T11:17:02.901Z,3.2
2022-10-04T11:19:04.607Z,5.6
2022-10-04T11:21:09.475Z,3.1
2022-10-04T11:23:11.166Z,7.3
2022-10-04T11:25:12.861Z,6
2022-10-04T11:27:41.309Z,4.2
2022-10-04T11:29:43.022Z,5.5
2022-10-04T11:31:44.717Z,4.7
2022-10-04T11:33:49.603Z,4.1
2022-10-04T11:35:51.297Z,3.2
2022-10-04T11:37:52.996Z,12.1
2022-10-04T11:39:54.839Z,7.8
2022-10-04T11:41:56.398Z,3.3
2022-10-04T11:43:58.121Z,4
2022-10-04T11:45:59.820Z,9.7
2022-10-04T11:48:04.726Z,2.7
2022-10-04T11:50:06.411Z,10
2022-10-04T11:52:08.118Z,5.6
2022-10-04T11:54:09.850Z,3.7
2022-10-04T11:56:11.527Z,4.5
2022-10-04T11:58:13.249Z,6
2022-10-04T12:00:14.944Z,9.5
2022-10-04T12:02:19.802Z,4.8
2022-10-04T12:04:21.515Z,4.3
2022-10-04T12:06:23.201Z,4.6
2022-10-04T12:08:24.911Z,4.4
2022-10-04T12:10:26.599Z,6.1
2022-10-04T12:12:28.298Z,4.2
2022-10-04T12:14:29.983Z,5.4
2022-10-04T12:16:34.925Z,4.2
2022-10-04T12:18:36.561Z,6.8
2022-10-04T12:20:38.257Z,4
2022-10-04T12:21:40.685Z,4
2022-10-04T12:23:42.408Z,4.5
2022-10-04T12:25:44.112Z,5.6
2022-10-04T12:27:45.771Z,2.2
2022-10-04T12:29:50.657Z,2.3
2022-10-04T12:31:52.437Z,13.7
2022-10-04T12:33:54.064Z,4.5
2022-10-04T12:35:55.754Z,7.7
2022-10-04T12:39:59.185Z,4
2022-10-04T12:42:00.863Z,6
2022-10-04T12:48:09.487Z,4.4
2022-10-04T12:50:11.212Z,7.5
2022-10-04T13:02:24.732Z,6
2022-10-04T13:04:26.496Z,7.9
2022-10-04T13:08:30.137Z,3.6
2022-10-04T13:10:31.942Z,15
2022-10-04T13:12:36.930Z,5
2022-10-04T13:14:38.750Z,6.7
2022-10-04T13:17:43.036Z,5
2022-10-04T13:19:44.755Z,3.6
2022-10-04T13:23:48.403Z,9.3
2022-10-04T13:25:53.518Z,8.8
2022-10-04T13:27:55.390Z,7.7
2022-10-04T13:29:57.144Z,2.6
2022-10-04T13:31:59.056Z,5.3
2022-10-04T13:34:00.804Z,5.2
2022-10-04T13:36:02.639Z,6.4
2022-10-04T13:38:04.463Z,3.3
2022-10-04T13:40:09.577Z,4.7
2022-10-04T13:42:12.617Z,8.4
2022-10-04T13:44:13.228Z,3.5
2022-10-04T13:48:21.520Z,4
2022-10-04T13:50:18.706Z,3.2
2022-10-04T13:52:20.547Z,5.8
2022-10-04T13:56:27.455Z,2.7
2022-10-04T13:58:29.307Z,4.5
2022-10-04T14:00:31.121Z,4.6
2022-10-04T14:02:32.977Z,2.2
2022-10-04T14:04:34.800Z,3.8
2022-10-04T14:10:43.546Z,8.3
2022-10-04T14:12:45.387Z,11.8
2022-10-04T14:13:47.929Z,8.5
2022-10-04T14:15:49.768Z,3.1
2022-10-04T14:17:51.611Z,11.4
2022-10-04T14:21:58.325Z,8.6
2022-10-04T14:24:00.134Z,8.7
2022-10-04T14:30:05.625Z,4.6
2022-10-04T14:32:07.526Z,10.6
2022-10-04T14:34:09.340Z,6.5
2022-10-04T14:36:14.398Z,3.5
2022-10-04T14:38:16.234Z,11.6
2022-10-04T14:40:18.088Z,6.5
2022-10-04T14:42:19.935Z,3.7
2022-10-04T14:44:21.752Z,2.4
2022-10-04T14:46:23.608Z,8.3
2022-10-04T14:48:25.445Z,5.7
2022-10-04T14:50:30.546Z,12.2
2022-10-04T14:52:32.396Z,7.6
2022-10-04T14:54:34.236Z,4
2022-10-04T14:56:36.066Z,5.2
2022-10-04T14:58:37.892Z,9.6
2022-10-04T15:00:39.725Z,5.2
2022-10-04T15:02:41.575Z,2.1
2022-10-04T15:04:47.385Z,5.8
2022-10-04T15:06:49.414Z,7.2
2022-10-04T15:08:50.974Z,6.5
2022-10-04T15:11:19.649Z,5.6
2022-10-04T15:13:21.469Z,7.8
2022-10-04T15:15:23.324Z,6.2
2022-10-04T15:17:28.423Z,4.6
2022-10-04T15:19:30.237Z,4.8
2022-10-04T15:21:32.642Z,5.6
2022-10-04T15:23:33.924Z,5.2
2022-10-04T15:25:35.766Z,5.7
2022-10-04T15:27:37.596Z,4.7
2022-10-04T15:31:44.512Z,7
2022-10-04T15:33:46.352Z,5.2
2022-10-04T15:35:48.188Z,5.1
2022-10-04T15:39:57.239Z,5.8
2022-10-04T15:41:53.713Z,3
2022-10-04T15:46:03.361Z,4.5
2022-10-04T15:52:06.163Z,4.7
2022-10-04T15:54:07.983Z,5.3
2022-10-04T15:56:09.797Z,9.7
2022-10-04T15:58:11.645Z,22.8
2022-10-04T16:05:22.956Z,7.9
2022-10-04T16:11:29.997Z,4.8
2022-10-04T16:21:42.445Z,2.2
2022-10-04T16:23:44.277Z,2.7
2022-10-04T16:25:46.097Z,8.6
2022-10-04T16:27:51.392Z,8.6
2022-10-04T16:30:14.525Z,7.3
2022-10-04T16:31:54.863Z,8.9
2022-10-04T16:33:56.707Z,4.9
2022-10-04T16:35:58.569Z,59.1
2022-10-04T16:38:00.393Z,5
2022-10-04T16:40:02.257Z,4.3
2022-10-04T16:42:09.895Z,5
2022-10-04T16:50:14.712Z,5.9
2022-10-04T16:54:18.389Z,18.2
2022-10-04T16:58:25.339Z,5.4
2022-10-04T17:00:27.181Z,3.1
2022-10-04T17:05:33.403Z,6.2
2022-10-04T17:07:35.230Z,7.5
2022-10-04T17:17:47.675Z,4.4
2022-10-04T17:19:52.677Z,7.1
2022-10-04T17:21:51.367Z,5.7
2022-10-04T17:25:58.291Z,4.2
2022-10-04T17:28:00.200Z,5.2
2022-10-04T17:30:01.999Z,4.6
2022-10-04T17:32:03.824Z,4.9
2022-10-04T17:34:05.640Z,9.4
2022-10-04T17:36:07.490Z,5.1
2022-10-04T17:38:12.674Z,6.2
2022-10-04T17:40:14.426Z,6
2022-10-04T17:42:16.294Z,12.5
2022-10-04T17:44:18.150Z,4.4
2022-10-04T17:46:19.993Z,8.9
2022-10-04T17:48:22.003Z,8
2022-10-04T17:50:23.666Z,3
2022-10-04T17:52:28.800Z,5.2
2022-10-04T17:54:30.600Z,6.7
2022-10-04T17:56:32.472Z,5.3
2022-10-04T17:57:35.015Z,5.1
2022-10-04T17:59:36.859Z,4.5
2022-10-04T18:01:38.793Z,10.5
2022-10-04T18:03:40.545Z,4.1
2022-10-04T18:05:45.622Z,3.4
2022-10-04T18:07:47.480Z,5.2
2022-10-04T18:09:49.382Z,5
2022-10-04T18:11:51.171Z,7.4
2022-10-04T18:13:52.994Z,14
2022-10-04T18:15:54.883Z,5.5
2022-10-04T18:17:56.685Z,7.1
2022-10-04T18:28:09.191Z,5.4
2022-10-04T18:30:10.969Z,6.2
2022-10-04T18:32:12.813Z,7.5
2022-10-04T18:34:18.022Z,4.9
2022-10-04T18:36:19.748Z,6.5
2022-10-04T18:38:21.578Z,6
2022-10-04T18:40:23.409Z,5.7
2022-10-04T18:42:25.242Z,6
2022-10-04T18:44:27.221Z,9.4
2022-10-04T18:46:28.963Z,4
2022-10-04T18:48:34.034Z,2.8
2022-10-04T18:50:35.887Z,3.3
2022-10-04T18:52:37.726Z,8.8
2022-10-04T18:55:06.419Z,9.3
2022-10-04T18:57:08.277Z,3.7
2022-10-04T18:59:10.151Z,10.2
2022-10-04T19:01:15.260Z,5.9
2022-10-04T19:03:17.027Z,6.1
2022-10-04T19:05:18.889Z,4
2022-10-04T19:07:20.725Z,5.9
2022-10-04T19:09:22.558Z,5.6
2022-10-04T19:11:24.418Z,6.9
2022-10-04T19:13:26.239Z,4.7
2022-10-04T19:15:31.332Z,4.9
2022-10-04T19:17:33.171Z,5.9
2022-10-04T19:19:34.994Z,8.5
2022-10-04T19:21:36.889Z,4.9
2022-10-04T19:23:38.685Z,4.6
2022-10-04T19:25:40.519Z,14.2
2022-10-04T19:27:42.372Z,4.1
2022-10-04T19:29:47.590Z,11.2
2022-10-04T19:31:49.337Z,3.8
2022-10-04T19:33:51.116Z,5.7
2022-10-04T19:35:52.973Z,3.4
2022-10-04T19:37:54.815Z,5
2022-10-04T19:39:56.662Z,3.9
2022-10-04T19:41:58.512Z,16.8
2022-10-04T19:44:03.631Z,4.3
2022-10-04T19:46:05.555Z,6.2
2022-10-04T19:48:07.335Z,4.3
2022-10-04T19:49:09.862Z,10.7
2022-10-04T19:51:11.708Z,4.8
2022-10-04T19:53:13.524Z,5.3
2022-10-04T19:55:15.379Z,4.7
2022-10-04T19:57:20.446Z,6.5
2022-10-04T19:59:22.293Z,4.7
2022-10-04T20:01:24.203Z,3.9
2022-10-04T20:03:25.984Z,2.9
2022-10-04T20:05:27.801Z,8.6
2022-10-04T20:07:29.667Z,5.6
2022-10-04T20:09:31.505Z,3.3
2022-10-04T20:11:36.588Z,8.3
2022-10-04T20:13:38.436Z,7.2
2022-10-04T20:15:40.256Z,10.9
2022-10-04T20:17:42.111Z,6.5
2022-10-04T20:19:43.952Z,11.6
2022-10-04T20:21:45.765Z,3.9
2022-10-04T20:23:47.612Z,11.7
2022-10-04T20:25:52.706Z,7.3
2022-10-04T20:27:54.562Z,3.7
2022-10-04T20:29:56.376Z,4
2022-10-04T20:31:58.309Z,5.9
2022-10-04T20:34:00.044Z,15
2022-10-04T20:36:01.906Z,12.6
2022-10-04T20:38:30.679Z,3.6
2022-10-04T20:40:08.822Z,4.3
2022-10-04T20:42:10.646Z,4.2
2022-10-04T20:44:12.495Z,3.9
2022-10-04T20:45:15.057Z,7.7
2022-10-04T20:47:16.878Z,7.3
2022-10-04T20:49:18.701Z,4.9
2022-10-04T20:51:22.006Z,5.2
2022-10-04T20:53:25.604Z,5.2
2022-10-04T20:55:27.521Z,6.4
2022-10-04T20:57:29.296Z,10.9
2022-10-04T20:59:31.169Z,4.4
2022-10-04T21:01:33.093Z,10.6
2022-10-04T21:03:34.871Z,5.5
2022-10-04T21:05:36.647Z,4.4
2022-10-04T21:07:41.753Z,3.3
2022-10-04T21:09:43.568Z,7.8
2022-10-04T21:11:45.407Z,2.8
2022-10-04T21:13:47.275Z,5.9
2022-10-04T21:15:49.091Z,3.5
2022-10-04T21:17:50.934Z,5.3
2022-10-04T21:19:52.783Z,5.9
2022-10-04T21:21:57.866Z,4.5
2022-10-04T21:23:59.698Z,5.9
2022-10-04T21:26:01.547Z,4.8
2022-10-04T21:28:03.459Z,6.8
2022-10-04T21:30:05.230Z,10.1
2022-10-04T21:32:07.196Z,3.2
2022-10-04T21:34:08.881Z,3.8
2022-10-04T21:36:13.984Z,5.4
2022-10-04T21:38:15.824Z,6.1
2022-10-04T21:40:17.686Z,4.3
2022-10-04T21:41:20.207Z,8.5
2022-10-04T21:43:22.076Z,4.5
2022-10-04T21:45:23.865Z,7.6
2022-10-04T21:47:25.725Z,3.8
2022-10-04T21:49:30.818Z,5.8
2022-10-04T21:55:36.351Z,4.1
2022-10-04T21:57:38.202Z,8.2
2022-10-04T21:59:41.591Z,5.3
2022-10-04T22:01:43.366Z,6.6
2022-10-04T22:05:50.303Z,6.5
2022-10-04T22:11:55.805Z,10.5
2022-10-04T22:13:57.618Z,13.9
2022-10-04T22:18:04.610Z,7.1
2022-10-04T22:20:06.395Z,4.1
2022-10-04T22:22:08.235Z,4.6
2022-10-04T22:24:10.057Z,4.8
2022-10-04T22:26:11.896Z,8.6
2022-10-04T22:28:13.783Z,3.8
2022-10-04T22:30:15.584Z,11
2022-10-04T22:32:20.655Z,8
2022-10-04T22:34:22.511Z,5.2
2022-10-04T22:40:54.886Z,6.8
2022-10-04T22:42:56.704Z,6.6
2022-10-04T22:47:03.644Z,8.2
2022-10-04T22:49:05.473Z,3.7
2022-10-04T22:51:07.298Z,9.2
2022-10-04T22:53:09.152Z,10.3
2022-10-04T22:55:11.020Z,7.7
2022-10-04T22:57:12.809Z,3.8
2022-10-04T22:59:17.931Z,8.2
2022-10-04T23:01:19.743Z,5.7
2022-10-04T23:03:21.702Z,7.3
2022-10-04T23:05:23.436Z,4.2
2022-10-04T23:07:25.260Z,6.3
2022-10-04T23:09:27.131Z,12.8
2022-10-04T23:11:28.930Z,4.5
2022-10-04T23:13:34.017Z,3.2
2022-10-04T23:15:35.846Z,4.6
2022-10-04T23:17:37.696Z,4.4
2022-10-04T23:19:39.535Z,5.6
2022-10-04T23:21:41.371Z,5.7
2022-10-04T23:23:43.207Z,7.1
2022-10-04T23:25:45.058Z,6.1
2022-10-04T23:27:50.143Z,10.2
2022-10-04T23:32:56.381Z,5.6
2022-10-04T23:34:58.182Z,8.1
2022-10-04T23:37:00.013Z,4.8
2022-10-04T23:39:01.885Z,4.8
2022-10-04T23:41:06.956Z,9
2022-10-04T23:43:08.795Z,19.2
2022-10-04T23:45:10.642Z,6
2022-10-04T23:47:12.477Z,6
2022-10-04T23:49:14.313Z,6.4
2022-10-04T23:51:16.318Z,9.9
2022-10-04T23:53:17.993Z,8.8
2022-10-04T23:55:23.103Z,8.4
2022-10-04T23:57:24.910Z,12.2
2022-10-04T23:59:26.760Z,4.7
